createdAt,value
2023-11-15T00:00:12.261Z,6.30
2023-11-15T00:02:41.113Z,5.55
2023-11-15T00:05:08.624Z,4.62
2023-11-15T00:07:35.892Z,3.67
2023-11-15T00:10:05.145Z,3.55
2023-11-15T00:12:33.473Z,3.87
2023-11-15T00:15:01.191Z,3.22
2023-11-15T00:17:32.155Z,2.25
2023-11-15T00:20:05.006Z,2.67
2023-11-15T00:22:32.924Z,2.87
2023-11-15T00:25:00.303Z,2.80
2023-11-15T00:27:30.866Z,2.95
2023-11-15T00:29:58.535Z,2.90
2023-11-15T00:32:25.635Z,2.30
2023-11-15T00:34:52.772Z,1.70
2023-11-15T00:37:20.300Z,2.03
2023-11-15T00:39:47.551Z,2.50
2023-11-15T00:42:17.614Z,2.12
2023-11-15T00:44:45.754Z,1.48
2023-11-15T00:47:14.779Z,1.55
2023-11-15T00:49:45.152Z,1.40
2023-11-15T00:52:15.146Z,2.05
2023-11-15T00:54:42.878Z,1.75
2023-11-15T00:57:09.972Z,1.35
2023-11-15T00:59:45.245Z,1.65
2023-11-15T01:02:13.049Z,1.52
2023-11-15T01:04:42.704Z,1.40
2023-11-15T01:07:09.747Z,1.02
2023-11-15T01:09:37.488Z,1.40
2023-11-15T01:12:08.496Z,1.27
2023-11-15T01:14:35.996Z,1.25
2023-11-15T01:17:04.270Z,1.15
2023-11-15T01:19:31.865Z,0.90
2023-11-15T01:21:59.620Z,1.00
2023-11-15T01:24:27.178Z,1.00
2023-11-15T01:26:56.783Z,0.93
2023-11-15T01:29:24.612Z,0.93
2023-11-15T01:31:51.994Z,1.20
2023-11-15T01:34:24.780Z,1.02
2023-11-15T01:36:52.392Z,1.83
2023-11-15T01:39:22.047Z,1.12
2023-11-15T01:41:50.975Z,0.80
2023-11-15T01:44:20.711Z,0.80
2023-11-15T01:46:50.783Z,0.77
2023-11-15T01:49:21.993Z,0.80
2023-11-15T01:51:55.530Z,0.90
2023-11-15T01:54:24.116Z,0.70
2023-11-15T01:56:51.986Z,0.62
2023-11-15T01:59:19.796Z,0.68
2023-11-15T02:01:52.328Z,0.70
2023-11-15T02:04:20.649Z,0.68
2023-11-15T02:06:48.051Z,0.62
2023-11-15T02:09:18.544Z,0.40
2023-11-15T02:11:45.920Z,0.50
2023-11-15T02:14:13.133Z,0.57
2023-11-15T02:16:45.925Z,0.90
2023-11-15T02:19:17.016Z,0.68
2023-11-15T02:21:44.476Z,0.60
2023-11-15T02:24:11.860Z,0.82
2023-11-15T02:26:47.348Z,0.55
2023-11-15T02:29:14.754Z,0.52
2023-11-15T02:31:42.356Z,0.70
2023-11-15T02:34:10.342Z,0.70
2023-11-15T02:36:51.768Z,0.60
2023-11-15T02:39:20.676Z,0.75
2023-11-15T02:41:48.652Z,0.70
2023-11-15T02:44:16.238Z,0.55
2023-11-15T02:46:43.381Z,0.40
2023-11-15T02:49:11.356Z,0.65
2023-11-15T02:51:40.317Z,0.40
2023-11-15T02:54:07.481Z,0.88
2023-11-15T02:56:34.860Z,0.70
2023-11-15T02:59:02.420Z,1.00
2023-11-15T03:01:29.484Z,1.00
2023-11-15T03:03:58.421Z,1.00
2023-11-15T03:06:26.762Z,1.00
2023-11-15T03:08:55.660Z,0.80
2023-11-15T03:11:23.888Z,0.90
2023-11-15T03:13:51.258Z,1.20
2023-11-15T03:16:18.883Z,0.90
2023-11-15T03:18:47.768Z,0.95
2023-11-15T03:21:15.468Z,0.90
2023-11-15T03:23:42.618Z,0.82
2023-11-15T03:26:11.080Z,1.15
2023-11-15T03:28:38.344Z,1.02
2023-11-15T03:31:07.148Z,1.37
2023-11-15T03:33:35.660Z,1.02
2023-11-15T03:36:02.913Z,1.30
2023-11-15T03:38:31.729Z,1.00
2023-11-15T03:41:01.814Z,0.70
2023-11-15T03:43:28.881Z,0.85
2023-11-15T03:45:57.308Z,0.60
2023-11-15T03:48:24.767Z,0.40
2023-11-15T03:50:54.641Z,0.93
2023-11-15T03:53:22.892Z,1.00
2023-11-15T03:55:53.997Z,0.93
2023-11-15T03:58:24.267Z,1.20
2023-11-15T04:00:52.146Z,1.12
2023-11-15T04:03:23.224Z,1.15
2023-11-15T04:05:51.047Z,1.02
2023-11-15T04:08:18.815Z,1.10
2023-11-15T04:10:49.687Z,0.93
2023-11-15T04:13:18.833Z,0.77
2023-11-15T04:15:46.239Z,1.10
2023-11-15T04:18:13.507Z,0.98
2023-11-15T04:20:42.005Z,0.68
2023-11-15T04:23:09.433Z,0.93
2023-11-15T04:25:37.667Z,0.90
2023-11-15T04:28:05.899Z,1.20
2023-11-15T04:30:34.664Z,1.00
2023-11-15T04:33:02.320Z,0.77
2023-11-15T04:35:30.012Z,1.15
2023-11-15T04:37:57.896Z,1.15
2023-11-15T04:40:28.023Z,1.30
2023-11-15T04:42:55.689Z,1.65
2023-11-15T04:45:24.009Z,1.40
2023-11-15T04:47:51.256Z,1.40
2023-11-15T04:50:18.475Z,1.58
2023-11-15T04:52:48.130Z,1.40
2023-11-15T04:55:15.783Z,1.50
2023-11-15T04:57:42.809Z,1.80
2023-11-15T05:00:12.527Z,1.50
2023-11-15T05:02:59.572Z,1.80
2023-11-15T05:05:30.645Z,1.60
2023-11-15T05:07:58.825Z,2.00
2023-11-15T05:10:27.205Z,1.80
2023-11-15T05:12:54.585Z,1.90
2023-11-15T05:15:21.746Z,2.10
2023-11-15T05:17:49.350Z,1.70
2023-11-15T05:20:19.769Z,2.08
2023-11-15T05:22:47.982Z,2.00
2023-11-15T05:25:17.472Z,1.92
2023-11-15T05:27:46.387Z,2.30
2023-11-15T05:30:17.138Z,2.80
2023-11-15T05:32:44.830Z,2.90
2023-11-15T05:35:14.084Z,3.05
2023-11-15T05:37:43.584Z,3.45
2023-11-15T05:40:14.306Z,2.45
2023-11-15T05:42:43.105Z,2.72
2023-11-15T05:45:13.990Z,2.97
2023-11-15T05:47:41.409Z,3.35
2023-11-15T05:50:10.820Z,2.83
2023-11-15T05:52:39.237Z,2.58
2023-11-15T05:55:08.479Z,3.10
2023-11-15T05:57:36.073Z,3.12
2023-11-15T06:00:19.550Z,2.95
2023-11-15T06:02:49.712Z,3.00
2023-11-15T06:05:18.227Z,2.60
2023-11-15T06:07:46.479Z,2.60
2023-11-15T06:10:15.981Z,2.37
2023-11-15T06:12:44.227Z,2.53
2023-11-15T06:15:12.505Z,2.10
2023-11-15T06:17:41.273Z,2.08
2023-11-15T06:20:18.812Z,1.35
2023-11-15T06:22:47.916Z,0.98
2023-11-15T06:25:20.052Z,0.80
2023-11-15T06:27:47.629Z,0.85
2023-11-15T06:30:15.161Z,0.57
2023-11-15T06:32:42.455Z,0.55
2023-11-15T06:35:10.212Z,0.75
2023-11-15T06:37:37.962Z,0.77
2023-11-15T06:40:09.082Z,0.85
2023-11-15T06:42:37.323Z,0.80
2023-11-15T06:45:05.736Z,0.90
2023-11-15T06:47:34.279Z,0.80
2023-11-15T06:50:05.698Z,0.88
2023-11-15T06:52:33.866Z,0.80
2023-11-15T06:55:04.635Z,0.60
2023-11-15T06:57:32.283Z,0.60
2023-11-15T07:00:00.002Z,0.70
2023-11-15T07:02:28.278Z,0.77
2023-11-15T07:04:56.860Z,0.70
2023-11-15T07:07:23.948Z,1.00
2023-11-15T07:09:51.504Z,0.57
2023-11-15T07:12:21.965Z,0.55
2023-11-15T07:14:49.509Z,0.70
2023-11-15T07:17:19.362Z,0.50
2023-11-15T07:19:50.184Z,0.73
2023-11-15T07:22:17.580Z,0.52
2023-11-15T07:24:44.734Z,0.60
2023-11-15T07:27:11.849Z,0.73
2023-11-15T07:29:39.317Z,0.57
2023-11-15T07:32:08.818Z,0.80
2023-11-15T07:34:37.180Z,1.00
2023-11-15T07:37:05.228Z,0.57
2023-11-15T07:39:32.338Z,1.27
2023-11-15T07:42:00.579Z,0.73
2023-11-15T07:44:31.357Z,0.98
2023-11-15T07:47:00.210Z,0.37
2023-11-15T07:49:30.121Z,0.47
2023-11-15T07:51:57.268Z,0.70
2023-11-15T07:54:25.451Z,0.50
2023-11-15T07:56:53.944Z,0.32
2023-11-15T07:59:23.142Z,0.50
2023-11-15T08:01:50.414Z,0.57
2023-11-15T08:04:18.566Z,0.77
2023-11-15T08:06:46.938Z,0.68
2023-11-15T08:09:28.188Z,0.50
2023-11-15T08:11:57.062Z,0.35
2023-11-15T08:14:26.374Z,0.52
2023-11-15T08:16:55.701Z,0.37
2023-11-15T08:19:24.064Z,0.45
2023-11-15T08:21:53.265Z,0.50
2023-11-15T08:24:23.795Z,0.30
2023-11-15T08:26:54.594Z,0.30
2023-11-15T08:29:23.183Z,0.30
2023-11-15T08:31:52.650Z,0.37
2023-11-15T08:34:23.841Z,0.32
2023-11-15T08:36:52.332Z,0.25
2023-11-15T08:39:23.338Z,0.30
2023-11-15T08:41:52.214Z,0.30
2023-11-15T08:44:19.635Z,0.35
2023-11-15T08:46:49.249Z,0.47
2023-11-15T08:49:19.547Z,0.20
2023-11-15T08:51:51.585Z,0.20
2023-11-15T08:54:19.848Z,0.68
2023-11-15T08:56:48.224Z,0.32
2023-11-15T08:59:20.172Z,0.22
2023-11-15T09:01:48.721Z,0.50
2023-11-15T09:04:17.208Z,0.20
2023-11-15T09:06:49.696Z,0.32
2023-11-15T09:09:18.643Z,0.80
2023-11-15T09:11:49.063Z,0.50
2023-11-15T09:14:16.431Z,0.32
2023-11-15T09:16:46.128Z,0.30
2023-11-15T09:19:22.395Z,0.40
2023-11-15T09:21:50.715Z,0.43
2023-11-15T09:24:23.899Z,0.20
2023-11-15T09:26:52.463Z,0.30
2023-11-15T09:29:20.708Z,0.40
2023-11-15T09:31:48.601Z,0.20
2023-11-15T09:34:17.772Z,0.20
2023-11-15T09:36:49.075Z,0.30
2023-11-15T09:39:17.661Z,0.10
2023-11-15T09:41:54.934Z,0.20
2023-11-15T09:44:24.964Z,0.65
2023-11-15T09:46:59.812Z,0.32
2023-11-15T09:49:27.567Z,0.17
2023-11-15T09:51:55.332Z,0.15
2023-11-15T09:54:24.529Z,0.20
2023-11-15T09:56:52.698Z,0.20
2023-11-15T09:59:20.474Z,0.25
2023-11-15T10:01:50.652Z,0.47
2023-11-15T10:04:22.476Z,0.62
2023-11-15T10:07:06.149Z,0.20
2023-11-15T10:09:41.569Z,0.22
2023-11-15T10:12:10.349Z,0.20
2023-11-15T10:14:54.271Z,0.40
2023-11-15T10:17:39.637Z,0.30
2023-11-15T10:20:19.751Z,0.15
2023-11-15T10:22:48.515Z,0.40
2023-11-15T10:25:16.626Z,0.50
2023-11-15T10:27:44.330Z,0.50
2023-11-15T10:30:17.449Z,0.20
2023-11-15T10:32:46.716Z,0.30
2023-11-15T10:35:30.367Z,0.47
2023-11-15T10:37:58.670Z,0.30
2023-11-15T10:40:31.303Z,0.15
2023-11-15T10:43:00.146Z,0.30
2023-11-15T10:45:29.487Z,0.10
2023-11-15T10:48:11.353Z,0.40
2023-11-15T10:50:43.682Z,0.43
2023-11-15T10:53:13.114Z,0.10
2023-11-15T10:55:41.613Z,0.40
2023-11-15T10:58:12.516Z,0.75
2023-11-15T11:00:44.764Z,0.30
2023-11-15T11:03:25.674Z,0.15
2023-11-15T11:06:00.485Z,0.32
2023-11-15T11:08:38.216Z,0.30
2023-11-15T11:11:11.995Z,0.10
2023-11-15T11:13:42.256Z,0.30
2023-11-15T11:16:41.672Z,0.62
2023-11-15T11:19:28.504Z,0.40
2023-11-15T11:22:05.650Z,0.30
2023-11-15T11:25:00.537Z,0.50
2023-11-15T11:27:31.132Z,0.25
2023-11-15T11:30:01.815Z,0.20
2023-11-15T11:32:33.408Z,0.22
2023-11-15T11:35:01.767Z,0.20
2023-11-15T11:38:05.431Z,0.10
2023-11-15T11:40:35.339Z,0.10
2023-11-15T11:43:16.260Z,0.40
2023-11-15T11:45:48.192Z,0.30
2023-11-15T11:48:27.229Z,0.20
2023-11-15T11:51:05.036Z,0.30
2023-11-15T11:53:40.424Z,0.10
2023-11-15T11:56:12.183Z,0.17
2023-11-15T11:58:40.605Z,0.20
2023-11-15T12:01:12.576Z,0.40
2023-11-15T12:03:47.761Z,0.20
2023-11-15T12:06:15.766Z,0.10
2023-11-15T12:08:52.700Z,0.30
2023-11-15T12:11:25.180Z,0.20
2023-11-15T12:13:53.977Z,0.40
2023-11-15T12:16:26.954Z,0.10
2023-11-15T12:19:07.035Z,0.40
2023-11-15T12:21:39.571Z,0.10
2023-11-15T12:24:07.889Z,0.57
2023-11-15T12:26:44.504Z,0.28
2023-11-15T12:29:27.794Z,0.30
2023-11-15T12:31:58.236Z,0.40
2023-11-15T12:34:28.767Z,0.40
2023-11-15T12:36:57.093Z,0.30
2023-11-15T12:39:24.759Z,0.20
2023-11-15T12:41:54.756Z,0.20
2023-11-15T12:44:22.714Z,0.40
2023-11-15T12:46:52.439Z,0.30
2023-11-15T12:49:25.127Z,0.20
2023-11-15T12:51:55.684Z,0.30
2023-11-15T12:54:23.734Z,0.40
2023-11-15T12:57:14.168Z,0.20
2023-11-15T12:59:49.320Z,0.93
2023-11-15T13:02:32.074Z,0.47
2023-11-15T13:05:04.720Z,0.30
2023-11-15T13:07:34.475Z,0.30
2023-11-15T13:10:05.116Z,0.40
2023-11-15T13:12:33.881Z,0.45
2023-11-15T13:15:02.147Z,0.40
2023-11-15T13:17:30.558Z,0.30
2023-11-15T13:20:01.713Z,0.40
2023-11-15T13:22:31.694Z,0.28
2023-11-15T13:24:59.558Z,0.40
2023-11-15T13:27:27.509Z,0.45
2023-11-15T13:29:57.926Z,0.20
2023-11-15T13:32:26.498Z,0.50
2023-11-15T13:34:55.425Z,0.50
2023-11-15T13:37:25.917Z,0.57
2023-11-15T13:39:53.524Z,0.25
2023-11-15T13:42:21.326Z,0.50
2023-11-15T13:44:49.245Z,0.25
2023-11-15T13:47:17.232Z,0.28
2023-11-15T13:49:47.891Z,0.30
2023-11-15T13:52:21.255Z,0.40
2023-11-15T13:54:48.951Z,0.40
2023-11-15T13:57:18.909Z,0.47
2023-11-15T13:59:46.757Z,0.50
2023-11-15T14:02:14.678Z,0.20
2023-11-15T14:04:42.791Z,0.62
2023-11-15T14:07:11.856Z,0.82
2023-11-15T14:09:39.780Z,0.40
2023-11-15T14:12:08.105Z,0.62
2023-11-15T14:14:40.164Z,0.32
2023-11-15T14:17:08.440Z,0.43
2023-11-15T14:19:38.072Z,0.68
2023-11-15T14:22:07.977Z,0.47
2023-11-15T14:24:36.293Z,0.32
2023-11-15T14:27:05.208Z,0.40
2023-11-15T14:29:32.933Z,0.30
2023-11-15T14:32:02.063Z,0.50
2023-11-15T14:34:30.055Z,0.37
2023-11-15T14:36:58.350Z,0.37
2023-11-15T14:39:27.955Z,0.28
2023-11-15T14:41:55.747Z,0.25
2023-11-15T14:44:25.359Z,0.65
2023-11-15T14:46:54.496Z,0.50
2023-11-15T14:49:22.246Z,0.20
2023-11-15T14:51:59.846Z,0.30
2023-11-15T14:54:31.147Z,0.22
2023-11-15T14:56:59.589Z,0.30
2023-11-15T14:59:28.377Z,0.65
2023-11-15T15:01:55.500Z,0.50
2023-11-15T15:04:24.528Z,0.30
2023-11-15T15:06:52.313Z,0.43
2023-11-15T15:09:20.234Z,0.20
2023-11-15T15:11:47.768Z,0.60
2023-11-15T15:14:17.050Z,0.40
2023-11-15T15:16:44.501Z,0.55
2023-11-15T15:19:11.882Z,0.50
2023-11-15T15:21:42.644Z,0.73
2023-11-15T15:24:10.570Z,1.02
2023-11-15T15:26:37.662Z,0.50
2023-11-15T15:29:07.820Z,0.40
2023-11-15T15:31:41.661Z,0.43
2023-11-15T15:34:09.905Z,0.47
2023-11-15T15:36:38.319Z,0.50
2023-11-15T15:39:08.166Z,0.80
2023-11-15T15:41:36.061Z,0.80
2023-11-15T15:44:03.834Z,0.50
2023-11-15T15:46:34.147Z,0.35
2023-11-15T15:49:02.011Z,0.93
2023-11-15T15:51:29.455Z,1.23
2023-11-15T15:53:59.970Z,0.93
2023-11-15T15:56:30.559Z,0.62
2023-11-15T15:58:57.710Z,0.95
2023-11-15T16:01:29.159Z,1.30
2023-11-15T16:03:56.747Z,1.50
2023-11-15T16:06:24.366Z,1.65
2023-11-15T16:08:56.953Z,1.90
2023-11-15T16:11:24.885Z,2.55
2023-11-15T16:13:52.081Z,2.08
2023-11-15T16:16:20.455Z,3.33
2023-11-15T16:18:47.922Z,2.33
2023-11-15T16:21:15.292Z,1.62
2023-11-15T16:23:46.274Z,1.60
2023-11-15T16:26:16.635Z,1.27
2023-11-15T16:28:45.664Z,1.40
2023-11-15T16:31:20.128Z,1.25
2023-11-15T16:33:50.341Z,1.65
2023-11-15T16:36:17.900Z,1.73
2023-11-15T16:38:47.601Z,2.33
2023-11-15T16:41:16.938Z,2.05
2023-11-15T16:43:44.035Z,1.33
2023-11-15T16:46:12.847Z,1.25
2023-11-15T16:48:41.784Z,0.90
2023-11-15T16:51:11.628Z,1.27
2023-11-15T16:53:41.953Z,1.23
2023-11-15T16:56:11.459Z,1.65
2023-11-15T16:58:39.383Z,0.90
2023-11-15T17:01:09.054Z,1.15
2023-11-15T17:03:36.389Z,1.35
2023-11-15T17:06:04.830Z,1.12
2023-11-15T17:08:34.220Z,1.10
2023-11-15T17:11:01.854Z,1.30
2023-11-15T17:13:29.034Z,2.03
2023-11-15T17:15:56.426Z,1.60
2023-11-15T17:18:23.636Z,1.20
2023-11-15T17:20:51.323Z,1.12
2023-11-15T17:23:20.644Z,1.20
2023-11-15T17:25:52.495Z,1.23
2023-11-15T17:28:20.609Z,1.42
2023-11-15T17:30:47.958Z,1.30
2023-11-15T17:33:15.138Z,1.60
2023-11-15T17:35:43.549Z,1.30
2023-11-15T17:38:10.623Z,1.25
2023-11-15T17:40:37.673Z,1.60
2023-11-15T17:43:08.156Z,1.30
2023-11-15T17:45:35.298Z,0.73
2023-11-15T17:48:02.521Z,1.23
2023-11-15T17:50:31.455Z,1.00
2023-11-15T17:52:59.440Z,1.20
2023-11-15T17:55:29.515Z,1.70
2023-11-15T17:57:57.641Z,1.12
2023-11-15T18:00:24.779Z,1.35
2023-11-15T18:02:52.236Z,1.30
2023-11-15T18:05:20.067Z,1.52
2023-11-15T18:07:47.214Z,1.52
2023-11-15T18:10:15.929Z,1.50
2023-11-15T18:12:43.859Z,1.60
2023-11-15T18:15:17.000Z,1.40
2023-11-15T18:17:44.904Z,1.52
2023-11-15T18:20:14.231Z,1.23
2023-11-15T18:22:46.434Z,1.98
2023-11-15T18:25:20.158Z,1.37
2023-11-15T18:27:50.018Z,1.00
2023-11-15T18:30:19.056Z,1.10
2023-11-15T18:32:52.191Z,1.55
2023-11-15T18:35:20.054Z,1.60
2023-11-15T18:37:47.900Z,1.87
2023-11-15T18:40:18.466Z,1.75
2023-11-15T18:42:46.004Z,1.20
2023-11-15T18:45:13.454Z,2.03
2023-11-15T18:47:42.405Z,1.25
2023-11-15T18:50:13.442Z,1.50
2023-11-15T18:52:44.563Z,1.45
2023-11-15T18:55:15.157Z,1.83
2023-11-15T18:57:45.663Z,1.58
2023-11-15T19:00:16.597Z,1.27
2023-11-15T19:02:46.150Z,1.45
2023-11-15T19:05:17.414Z,1.35
2023-11-15T19:07:45.837Z,2.00
2023-11-15T19:10:15.079Z,4.97
2023-11-15T19:12:45.297Z,5.18
2023-11-15T19:15:13.102Z,4.78
2023-11-15T19:17:49.806Z,3.92
2023-11-15T19:20:19.552Z,3.25
2023-11-15T19:22:47.776Z,4.05
2023-11-15T19:25:16.154Z,4.65
2023-11-15T19:27:45.501Z,4.30
2023-11-15T19:30:13.572Z,4.85
2023-11-15T19:32:41.494Z,4.53
2023-11-15T19:35:11.946Z,5.35
2023-11-15T19:37:44.473Z,2.87
2023-11-15T19:40:17.339Z,1.87
2023-11-15T19:42:44.486Z,1.25
2023-11-15T19:45:12.888Z,1.55
2023-11-15T19:48:00.095Z,1.08
2023-11-15T19:50:33.312Z,1.30
2023-11-15T19:53:04.392Z,0.85
2023-11-15T19:55:32.342Z,1.20
2023-11-15T19:57:59.843Z,1.77
2023-11-15T20:00:26.972Z,1.95
2023-11-15T20:02:54.433Z,1.55
2023-11-15T20:05:22.789Z,1.42
2023-11-15T20:07:50.926Z,2.22
2023-11-15T20:10:19.989Z,1.60
2023-11-15T20:12:49.493Z,1.15
2023-11-15T20:15:16.699Z,1.75
2023-11-15T20:17:46.196Z,1.10
2023-11-15T20:20:16.150Z,1.00
2023-11-15T20:22:51.815Z,0.93
2023-11-15T20:25:20.578Z,1.25
2023-11-15T20:27:48.187Z,1.23
2023-11-15T20:30:16.050Z,0.95
2023-11-15T20:32:43.392Z,1.20
2023-11-15T20:35:12.220Z,1.15
2023-11-15T20:37:39.434Z,0.85
2023-11-15T20:40:08.863Z,1.50
2023-11-15T20:42:36.521Z,1.12
2023-11-15T20:45:04.036Z,1.08
2023-11-15T20:47:51.139Z,0.88
2023-11-15T20:50:21.461Z,0.90
2023-11-15T20:52:49.832Z,1.10
2023-11-15T20:55:25.548Z,1.58
2023-11-15T20:57:53.257Z,0.98
2023-11-15T21:00:27.866Z,1.02
2023-11-15T21:02:57.375Z,1.10
2023-11-15T21:05:26.296Z,1.60
2023-11-15T21:07:53.804Z,1.37
2023-11-15T21:10:21.646Z,1.30
2023-11-15T21:12:48.657Z,1.80
2023-11-15T21:15:16.846Z,1.20
2023-11-15T21:17:45.768Z,1.27
2023-11-15T21:20:14.748Z,1.77
2023-11-15T21:22:45.832Z,1.67
2023-11-15T21:25:14.157Z,1.45
2023-11-15T21:27:42.722Z,1.50
2023-11-15T21:30:11.886Z,1.23
2023-11-15T21:32:43.569Z,2.00
2023-11-15T21:35:12.234Z,1.30
2023-11-15T21:37:44.035Z,1.30
2023-11-15T21:40:16.674Z,1.60
2023-11-15T21:42:45.692Z,1.52
2023-11-15T21:45:24.296Z,1.25
2023-11-15T21:47:51.810Z,1.48
2023-11-15T21:50:21.736Z,1.58
2023-11-15T21:52:50.635Z,1.05
2023-11-15T21:55:18.631Z,1.40
2023-11-15T21:57:47.239Z,2.28
2023-11-15T22:00:17.217Z,1.12
2023-11-15T22:02:44.850Z,0.98
2023-11-15T22:05:12.028Z,1.10
2023-11-15T22:07:40.559Z,1.48
2023-11-15T22:10:13.596Z,1.35
2023-11-15T22:12:42.654Z,1.25
2023-11-15T22:15:20.114Z,1.17
2023-11-15T22:17:49.225Z,1.35
2023-11-15T22:20:17.227Z,1.67
2023-11-15T22:22:45.740Z,1.60
2023-11-15T22:25:20.763Z,1.27
2023-11-15T22:27:48.290Z,1.37
2023-11-15T22:30:16.021Z,1.50
2023-11-15T22:32:45.598Z,1.10
2023-11-15T22:35:12.952Z,0.80
2023-11-15T22:37:40.011Z,1.30
2023-11-15T22:40:07.568Z,1.30
2023-11-15T22:42:35.058Z,1.23
2023-11-15T22:45:03.169Z,1.12
2023-11-15T22:47:31.494Z,0.98
2023-11-15T22:49:59.653Z,1.20
2023-11-15T22:52:28.329Z,1.25
2023-11-15T22:54:55.455Z,1.15
2023-11-15T22:57:23.334Z,1.10
2023-11-15T22:59:52.320Z,1.20
2023-11-15T23:02:20.429Z,1.30
2023-11-15T23:04:48.117Z,1.30
2023-11-15T23:07:21.572Z,1.33
2023-11-15T23:09:50.542Z,1.17
2023-11-15T23:12:24.015Z,1.10
2023-11-15T23:14:51.644Z,1.15
2023-11-15T23:17:19.516Z,0.85
2023-11-15T23:19:50.429Z,1.35
2023-11-15T23:22:17.828Z,1.30
2023-11-15T23:24:44.912Z,1.55
2023-11-15T23:27:12.097Z,0.88
2023-11-15T23:29:39.532Z,0.98
2023-11-15T23:32:06.991Z,0.90
2023-11-15T23:34:34.185Z,0.80
2023-11-15T23:37:01.543Z,0.93
2023-11-15T23:39:28.656Z,0.73
2023-11-15T23:41:56.313Z,0.93
2023-11-15T23:44:23.756Z,0.90
2023-11-15T23:46:52.892Z,0.90
2023-11-15T23:49:22.274Z,1.02
2023-11-15T23:51:49.721Z,1.00
2023-11-15T23:54:19.253Z,0.80
2023-11-15T23:56:46.416Z,0.95
2023-11-15T23:59:16.007Z,0.73
